Pleasant Shade, TN (37145)

3:47 PM CDT on June 02, 2015 (GMT -0500)
TTCC | | Change Station
CLOSE
Current Station
Personal Weather Station
Location: Hartsville, TN
Elevation: 531 ft
Nearby Weather Stations

Elev 531 ft 36.35 °N, 86.09 °W | Updated 11 seconds ago

Overcast
Overcast
70.2 °F
Feels Like 74 °F
N
0.0
Wind Variable Wind from NNE

Today
High -- | Low -- °F
--% Chance of Precip.
Yesterday
High -- | Low -- °F
Precip. -- in
5:27 AM 7:56 PM
Full, 100% visible
Pressure 30.01 in
Visibility 10.0 miles
Clouds Scattered Clouds 2100 ft
Scattered Clouds 3200 ft
Heat Index 74 °F
Dew Point 60 °F
Humidity 70%
Rainfall 0.00 in
Snow Depth Not available.
UV 6 out of 12
Pollen 5.00 out of 12
Air Quality Not available.
Flu Activity Sporadic
METAR KSRB 022035Z AUTO 02006KT 10SM SCT021 SCT032 22/17 A3001 RMK

More Conditions Fewer Conditions

Pressure 30.01 in
Visibility 10.0 miles
Clouds Scattered Clouds 2100 ft
Scattered Clouds 3200 ft
Heat Index 74 °F
Dew Point 60 °F
Humidity 70%
Rainfall 0.00 in
Snow Depth Not available.
UV 6 out of 12
Pollen 5.00 out of 12
Air Quality Not available.
Flu Activity Sporadic
METAR KSRB 022035Z AUTO 02006KT 10SM SCT021 SCT032 22/17 A3001 RMK

More Conditions Fewer Conditions

10-Day Weather Forecast

×

Almanac

Astronomy

Jun. 02, 2015 Rise Set
Actual Time
Civil Twilight
Nautical Twilight
Astronomical Twilight
Moon
Length of Visible Light
Length of Day
Tomorrow will be .
, % of the Moon is Illuminated

Today's Extremes

State Highs State Lows

Community

WunderPhotos

Upload Photos

1,826,022 photos uploaded!

WunderBlogs® & News

Nearby

Air Quality

  Air Quality AQ Index Pollutant
Not available.

Snow Depth

Station Depth Elevation

Earthquake Activity

City Distance Mag. Time & Date
Minimum magnitude displayed is 2.5.

Coastal Water Temperatures

Place Temperature

Stations

Nearby Weather Stations

Station Location Temp. Windchill Dew Point Humidity Wind Precip. Elev Updated Type